sensor_id;sensor_type;location;lat;lon;timestamp;pressure;altitude;pressure_sealevel;temperature;humidity
18436;BME280;9346;52.006;4.720;2023-12-14T00:01:17;100920.84;;;7.03;100.00
18436;BME280;9346;52.006;4.720;2023-12-14T00:03:45;100935.88;;;7.00;100.00
18436;BME280;9346;52.006;4.720;2023-12-14T00:06:15;100937.88;;;7.05;100.00
18436;BME280;9346;52.006;4.720;2023-12-14T00:08:43;100952.38;;;7.05;100.00
18436;BME280;9346;52.006;4.720;2023-12-14T00:11:11;100952.72;;;7.09;100.00
18436;BME280;9346;52.006;4.720;2023-12-14T00:13:39;100957.72;;;7.12;100.00
18436;BME280;9346;52.006;4.720;2023-12-14T00:16:08;100961.34;;;7.17;100.00
18436;BME280;9346;52.006;4.720;2023-12-14T00:18:35;100966.84;;;7.17;100.00
18436;BME280;9346;52.006;4.720;2023-12-14T00:21:04;100970.00;;;7.09;100.00
18436;BME280;9346;52.006;4.720;2023-12-14T00:23:34;100976.63;;;7.13;100.00
18436;BME280;9346;52.006;4.720;2023-12-14T00:26:02;100976.13;;;7.16;100.00
18436;BME280;9346;52.006;4.720;2023-12-14T00:28:31;100985.69;;;7.14;100.00
18436;BME280;9346;52.006;4.720;2023-12-14T00:30:59;100982.13;;;7.13;100.00
18436;BME280;9346;52.006;4.720;2023-12-14T00:33:26;100983.09;;;7.07;100.00
18436;BME280;9346;52.006;4.720;2023-12-14T00:35:54;100988.81;;;7.06;100.00
18436;BME280;9346;52.006;4.720;2023-12-14T00:38:22;101005.38;;;7.11;100.00
18436;BME280;9346;52.006;4.720;2023-12-14T00:40:52;101010.34;;;7.14;100.00
18436;BME280;9346;52.006;4.720;2023-12-14T00:43:20;101010.84;;;7.11;100.00
18436;BME280;9346;52.006;4.720;2023-12-14T00:45:48;101019.31;;;7.09;100.00
18436;BME280;9346;52.006;4.720;2023-12-14T00:48:17;101024.78;;;7.09;100.00
18436;BME280;9346;52.006;4.720;2023-12-14T00:50:45;101015.38;;;7.05;100.00
18436;BME280;9346;52.006;4.720;2023-12-14T00:53:12;101023.59;;;7.05;100.00
18436;BME280;9346;52.006;4.720;2023-12-14T00:55:41;101037.63;;;7.09;100.00
18436;BME280;9346;52.006;4.720;2023-12-14T00:58:13;101038.56;;;7.14;100.00
18436;BME280;9346;52.006;4.720;2023-12-14T01:00:41;101032.75;;;7.11;100.00
18436;BME280;9346;52.006;4.720;2023-12-14T01:03:09;101044.53;;;7.11;100.00
18436;BME280;9346;52.006;4.720;2023-12-14T01:05:37;101043.34;;;7.07;100.00
18436;BME280;9346;52.006;4.720;2023-12-14T01:08:04;101051.34;;;7.09;100.00
18436;BME280;9346;52.006;4.720;2023-12-14T01:10:32;101056.81;;;7.09;100.00
18436;BME280;9346;52.006;4.720;2023-12-14T01:12:59;101064.19;;;7.08;100.00
18436;BME280;9346;52.006;4.720;2023-12-14T01:15:29;101060.16;;;7.11;100.00
18436;BME280;9346;52.006;4.720;2023-12-14T01:17:57;101066.19;;;7.13;100.00
18436;BME280;9346;52.006;4.720;2023-12-14T01:20:25;101062.41;;;7.14;100.00
18436;BME280;9346;52.006;4.720;2023-12-14T01:22:53;101065.28;;;7.07;100.00
18436;BME280;9346;52.006;4.720;2023-12-14T01:25:20;101066.94;;;7.08;100.00
18436;BME280;9346;52.006;4.720;2023-12-14T01:27:48;101084.19;;;7.09;100.00
18436;BME280;9346;52.006;4.720;2023-12-14T01:30:16;101083.97;;;7.10;100.00
18436;BME280;9346;52.006;4.720;2023-12-14T01:32:46;101090.59;;;7.14;100.00
18436;BME280;9346;52.006;4.720;2023-12-14T01:35:14;101092.28;;;7.15;100.00
18436;BME280;9346;52.006;4.720;2023-12-14T01:37:41;101093.09;;;7.16;100.00
18436;BME280;9346;52.006;4.720;2023-12-14T01:40:09;101100.00;;;7.18;100.00
18436;BME280;9346;52.006;4.720;2023-12-14T01:42:37;101116.94;;;7.15;100.00
18436;BME280;9346;52.006;4.720;2023-12-14T01:45:06;101115.25;;;7.14;100.00
18436;BME280;9346;52.006;4.720;2023-12-14T01:47:33;101115.75;;;7.11;100.00
18436;BME280;9346;52.006;4.720;2023-12-14T01:50:03;101120.16;;;7.12;100.00
18436;BME280;9346;52.006;4.720;2023-12-14T01:52:31;101131.13;;;7.12;100.00
18436;BME280;9346;52.006;4.720;2023-12-14T01:54:59;101132.53;;;7.15;100.00
18436;BME280;9346;52.006;4.720;2023-12-14T01:57:28;101139.41;;;7.17;100.00
18436;BME280;9346;52.006;4.720;2023-12-14T01:59:56;101157.28;;;7.20;100.00
18436;BME280;9346;52.006;4.720;2023-12-14T02:02:24;101159.75;;;7.21;100.00
18436;BME280;9346;52.006;4.720;2023-12-14T02:04:53;101171.56;;;7.22;100.00
18436;BME280;9346;52.006;4.720;2023-12-14T02:07:23;101171.91;;;7.25;100.00
18436;BME280;9346;52.006;4.720;2023-12-14T02:09:50;101173.56;;;7.26;100.00
18436;BME280;9346;52.006;4.720;2023-12-14T02:12:18;101174.91;;;7.24;100.00
18436;BME280;9346;52.006;4.720;2023-12-14T02:14:48;101177.88;;;7.22;100.00
18436;BME280;9346;52.006;4.720;2023-12-14T02:17:15;101181.69;;;7.21;100.00
18436;BME280;9346;52.006;4.720;2023-12-14T02:19:43;101183.84;;;7.19;100.00
18436;BME280;9346;52.006;4.720;2023-12-14T02:22:11;101186.59;;;7.19;100.00
18436;BME280;9346;52.006;4.720;2023-12-14T02:24:40;101187.06;;;7.16;100.00
18436;BME280;9346;52.006;4.720;2023-12-14T02:27:08;101194.44;;;7.16;100.00
18436;BME280;9346;52.006;4.720;2023-12-14T02:29:35;101190.66;;;7.17;100.00
18436;BME280;9346;52.006;4.720;2023-12-14T02:32:06;101195.91;;;7.18;100.00
18436;BME280;9346;52.006;4.720;2023-12-14T02:34:33;101201.94;;;7.20;100.00
18436;BME280;9346;52.006;4.720;2023-12-14T02:37:01;101211.00;;;7.21;100.00
18436;BME280;9346;52.006;4.720;2023-12-14T02:39:29;101212.56;;;7.17;100.00
18436;BME280;9346;52.006;4.720;2023-12-14T02:42:00;101218.06;;;7.17;100.00
18436;BME280;9346;52.006;4.720;2023-12-14T02:44:28;101223.88;;;7.20;100.00
18436;BME280;9346;52.006;4.720;2023-12-14T02:46:55;101228.50;;;7.20;100.00
18436;BME280;9346;52.006;4.720;2023-12-14T02:49:23;101222.78;;;7.21;100.00
18436;BME280;9346;52.006;4.720;2023-12-14T02:51:51;101224.34;;;7.17;100.00
18436;BME280;9346;52.006;4.720;2023-12-14T02:54:19;101220.78;;;7.17;100.00
18436;BME280;9346;52.006;4.720;2023-12-14T02:56:47;101222.34;;;7.13;100.00
18436;BME280;9346;52.006;4.720;2023-12-14T02:59:17;101230.31;;;7.14;100.00
18436;BME280;9346;52.006;4.720;2023-12-14T03:01:45;101232.00;;;7.15;100.00
18436;BME280;9346;52.006;4.720;2023-12-14T03:04:13;101231.75;;;7.17;100.00
18436;BME280;9346;52.006;4.720;2023-12-14T03:06:40;101231.50;;;7.18;100.00
18436;BME280;9346;52.006;4.720;2023-12-14T03:09:08;101237.00;;;7.18;100.00
18436;BME280;9346;52.006;4.720;2023-12-14T03:11:37;101237.81;;;7.19;100.00
18436;BME280;9346;52.006;4.720;2023-12-14T03:14:04;101225.44;;;7.16;100.00
18436;BME280;9346;52.006;4.720;2023-12-14T03:16:35;101234.13;;;7.13;100.00
18436;BME280;9346;52.006;4.720;2023-12-14T03:19:02;101241.75;;;7.11;100.00
18436;BME280;9346;52.006;4.720;2023-12-14T03:21:30;101250.56;;;7.13;100.00
18436;BME280;9346;52.006;4.720;2023-12-14T03:23:59;101251.41;;;7.14;100.00
18436;BME280;9346;52.006;4.720;2023-12-14T03:26:29;101248.44;;;7.15;100.00
18436;BME280;9346;52.006;4.720;2023-12-14T03:28:56;101259.97;;;7.17;100.00
18436;BME280;9346;52.006;4.720;2023-12-14T03:31:25;101256.97;;;7.19;100.00
18436;BME280;9346;52.006;4.720;2023-12-14T03:33:54;101262.47;;;7.19;100.00
18436;BME280;9346;52.006;4.720;2023-12-14T03:36:22;101262.69;;;7.17;100.00
18436;BME280;9346;52.006;4.720;2023-12-14T03:38:51;101261.13;;;7.21;100.00
18436;BME280;9346;52.006;4.720;2023-12-14T03:41:19;101255.91;;;7.20;100.00
18436;BME280;9346;52.006;4.720;2023-12-14T03:43:48;101258.91;;;7.18;100.00
18436;BME280;9346;52.006;4.720;2023-12-14T03:46:15;101263.78;;;7.16;100.00
18436;BME280;9346;52.006;4.720;2023-12-14T03:48:43;101274.13;;;7.14;100.00
18436;BME280;9346;52.006;4.720;2023-12-14T03:51:17;101273.81;;;7.11;100.00
18436;BME280;9346;52.006;4.720;2023-12-14T03:53:45;101276.78;;;7.09;100.00
18436;BME280;9346;52.006;4.720;2023-12-14T03:56:13;101280.56;;;7.08;100.00
18436;BME280;9346;52.006;4.720;2023-12-14T03:58:41;101281.78;;;7.12;100.00
18436;BME280;9346;52.006;4.720;2023-12-14T04:01:16;101278.56;;;7.15;100.00
18436;BME280;9346;52.006;4.720;2023-12-14T04:03:43;101281.31;;;7.15;100.00
18436;BME280;9346;52.006;4.720;2023-12-14T04:06:14;101289.28;;;7.17;100.00
18436;BME280;9346;52.006;4.720;2023-12-14T04:08:42;101291.91;;;7.12;100.00
18436;BME280;9346;52.006;4.720;2023-12-14T04:11:10;101295.72;;;7.11;100.00
18436;BME280;9346;52.006;4.720;2023-12-14T04:13:38;101306.19;;;7.14;100.00
18436;BME280;9346;52.006;4.720;2023-12-14T04:16:06;101308.69;;;7.15;100.00
18436;BME280;9346;52.006;4.720;2023-12-14T04:18:34;101311.19;;;7.17;100.00
18436;BME280;9346;52.006;4.720;2023-12-14T04:21:03;101317.88;;;7.09;100.00
18436;BME280;9346;52.006;4.720;2023-12-14T04:23:34;101318.13;;;7.08;100.00
18436;BME280;9346;52.006;4.720;2023-12-14T04:26:02;101315.00;;;7.04;100.00
18436;BME280;9346;52.006;4.720;2023-12-14T04:28:30;101325.50;;;7.07;100.00
18436;BME280;9346;52.006;4.720;2023-12-14T04:30:58;101327.63;;;7.05;100.00
18436;BME280;9346;52.006;4.720;2023-12-14T04:33:26;101331.19;;;7.06;100.00
18436;BME280;9346;52.006;4.720;2023-12-14T04:35:54;101335.84;;;7.05;100.00
18436;BME280;9346;52.006;4.720;2023-12-14T04:38:22;101345.13;;;7.04;100.00
18436;BME280;9346;52.006;4.720;2023-12-14T04:40:52;101353.34;;;7.04;100.00
18436;BME280;9346;52.006;4.720;2023-12-14T04:43:20;101364.31;;;7.04;100.00
18436;BME280;9346;52.006;4.720;2023-12-14T04:45:47;101366.47;;;7.02;100.00
18436;BME280;9346;52.006;4.720;2023-12-14T04:48:15;101370.50;;;7.00;100.00
18436;BME280;9346;52.006;4.720;2023-12-14T04:50:43;101378.47;;;7.01;100.00
18436;BME280;9346;52.006;4.720;2023-12-14T04:53:11;101387.78;;;7.00;100.00
18436;BME280;9346;52.006;4.720;2023-12-14T04:55:39;101387.53;;;7.02;100.00
18436;BME280;9346;52.006;4.720;2023-12-14T04:58:09;101394.56;;;6.98;100.00
18436;BME280;9346;52.006;4.720;2023-12-14T05:00:37;101409.78;;;6.93;100.00
18436;BME280;9346;52.006;4.720;2023-12-14T05:03:05;101414.69;;;6.92;100.00
18436;BME280;9346;52.006;4.720;2023-12-14T05:05:33;101416.59;;;6.91;100.00
18436;BME280;9346;52.006;4.720;2023-12-14T05:08:01;101427.53;;;6.91;100.00
18436;BME280;9346;52.006;4.720;2023-12-14T05:10:28;101425.66;;;6.92;100.00
18436;BME280;9346;52.006;4.720;2023-12-14T05:12:56;101427.78;;;6.89;100.00
18436;BME280;9346;52.006;4.720;2023-12-14T05:15:26;101434.34;;;6.88;100.00
18436;BME280;9346;52.006;4.720;2023-12-14T05:17:54;101436.47;;;6.86;100.00
18436;BME280;9346;52.006;4.720;2023-12-14T05:20:22;101440.28;;;6.85;100.00
18436;BME280;9346;52.006;4.720;2023-12-14T05:22:50;101453.34;;;6.83;100.00
18436;BME280;9346;52.006;4.720;2023-12-14T05:25:18;101453.34;;;6.83;100.00
18436;BME280;9346;52.006;4.720;2023-12-14T05:27:46;101461.34;;;6.85;100.00
18436;BME280;9346;52.006;4.720;2023-12-14T05:30:14;101462.28;;;6.79;100.00
18436;BME280;9346;52.006;4.720;2023-12-14T05:32:46;101461.47;;;6.78;100.00
18436;BME280;9346;52.006;4.720;2023-12-14T05:35:13;101458.94;;;6.77;100.00
18436;BME280;9346;52.006;4.720;2023-12-14T05:37:42;101456.44;;;6.75;100.00
18436;BME280;9346;52.006;4.720;2023-12-14T05:40:11;101458.81;;;6.72;100.00
18436;BME280;9346;52.006;4.720;2023-12-14T05:42:39;101461.06;;;6.75;100.00
18436;BME280;9346;52.006;4.720;2023-12-14T05:45:08;101473.09;;;6.74;100.00
18436;BME280;9346;52.006;4.720;2023-12-14T05:47:36;101468.72;;;6.73;100.00
18436;BME280;9346;52.006;4.720;2023-12-14T05:50:06;101475.22;;;6.72;100.00
18436;BME280;9346;52.006;4.720;2023-12-14T05:52:35;101483.31;;;6.67;100.00
18436;BME280;9346;52.006;4.720;2023-12-14T05:55:03;101496.16;;;6.66;100.00
18436;BME280;9346;52.006;4.720;2023-12-14T05:57:31;101486.88;;;6.67;100.00
18436;BME280;9346;52.006;4.720;2023-12-14T05:59:59;101494.88;;;6.69;100.00
18436;BME280;9346;52.006;4.720;2023-12-14T06:02:27;101494.41;;;6.72;100.00
18436;BME280;9346;52.006;4.720;2023-12-14T06:04:54;101500.25;;;6.75;100.00
18436;BME280;9346;52.006;4.720;2023-12-14T06:07:25;101501.91;;;6.76;100.00
18436;BME280;9346;52.006;4.720;2023-12-14T06:09:53;101506.44;;;6.71;100.00
18436;BME280;9346;52.006;4.720;2023-12-14T06:12:21;101507.13;;;6.66;100.00
18436;BME280;9346;52.006;4.720;2023-12-14T06:14:48;101514.94;;;6.63;100.00
18436;BME280;9346;52.006;4.720;2023-12-14T06:17:16;101513.91;;;6.64;100.00
18436;BME280;9346;52.006;4.720;2023-12-14T06:19:44;101525.91;;;6.63;100.00
18436;BME280;9346;52.006;4.720;2023-12-14T06:22:12;101534.13;;;6.63;100.00
18436;BME280;9346;52.006;4.720;2023-12-14T06:24:44;101534.34;;;6.61;100.00
18436;BME280;9346;52.006;4.720;2023-12-14T06:27:13;101538.84;;;6.56;100.00
18436;BME280;9346;52.006;4.720;2023-12-14T06:29:41;101536.56;;;6.53;100.00
18436;BME280;9346;52.006;4.720;2023-12-14T06:32:10;101553.59;;;6.55;100.00
18436;BME280;9346;52.006;4.720;2023-12-14T06:34:38;101555.72;;;6.53;100.00
18436;BME280;9346;52.006;4.720;2023-12-14T06:37:06;101572.53;;;6.56;100.00
18436;BME280;9346;52.006;4.720;2023-12-14T06:39:34;101571.22;;;6.59;100.00
18436;BME280;9346;52.006;4.720;2023-12-14T06:42:06;101585.53;;;6.61;100.00
18436;BME280;9346;52.006;4.720;2023-12-14T06:44:34;101587.44;;;6.60;100.00
18436;BME280;9346;52.006;4.720;2023-12-14T06:47:03;101594.72;;;6.66;100.00
18436;BME280;9346;52.006;4.720;2023-12-14T06:49:31;101594.56;;;6.61;100.00
18436;BME280;9346;52.006;4.720;2023-12-14T06:51:59;101594.03;;;6.53;100.00
18436;BME280;9346;52.006;4.720;2023-12-14T06:54:27;101593.69;;;6.49;100.00
18436;BME280;9346;52.006;4.720;2023-12-14T06:56:54;101594.50;;;6.50;100.00
18436;BME280;9346;52.006;4.720;2023-12-14T06:59:24;101598.41;;;6.42;100.00
18436;BME280;9346;52.006;4.720;2023-12-14T07:01:52;101601.84;;;6.38;100.00
18436;BME280;9346;52.006;4.720;2023-12-14T07:04:21;101606.06;;;6.34;100.00
18436;BME280;9346;52.006;4.720;2023-12-14T07:06:51;101601.53;;;6.28;100.00
18436;BME280;9346;52.006;4.720;2023-12-14T07:09:19;101611.84;;;6.26;100.00
18436;BME280;9346;52.006;4.720;2023-12-14T07:11:46;101610.78;;;6.27;100.00
18436;BME280;9346;52.006;4.720;2023-12-14T07:14:14;101619.59;;;6.29;100.00
18436;BME280;9346;52.006;4.720;2023-12-14T07:16:45;101624.63;;;6.32;100.00
18436;BME280;9346;52.006;4.720;2023-12-14T07:19:14;101617.84;;;6.34;100.00
18436;BME280;9346;52.006;4.720;2023-12-14T07:21:41;101623.94;;;6.36;100.00
18436;BME280;9346;52.006;4.720;2023-12-14T07:24:09;101622.88;;;6.37;100.00
18436;BME280;9346;52.006;4.720;2023-12-14T07:26:37;101633.44;;;6.34;100.00
18436;BME280;9346;52.006;4.720;2023-12-14T07:29:04;101637.22;;;6.33;100.00
18436;BME280;9346;52.006;4.720;2023-12-14T07:31:32;101642.88;;;6.38;100.00
18436;BME280;9346;52.006;4.720;2023-12-14T07:34:03;101655.03;;;6.42;100.00
18436;BME280;9346;52.006;4.720;2023-12-14T07:36:31;101654.41;;;6.40;100.00
18436;BME280;9346;52.006;4.720;2023-12-14T07:39:00;101649.56;;;6.42;100.00
18436;BME280;9346;52.006;4.720;2023-12-14T07:41:28;101654.81;;;6.43;100.00
18436;BME280;9346;52.006;4.720;2023-12-14T07:43:58;101656.25;;;6.46;100.00
18436;BME280;9346;52.006;4.720;2023-12-14T07:46:26;101676.03;;;6.48;100.00
18436;BME280;9346;52.006;4.720;2023-12-14T07:48:54;101672.84;;;6.51;100.00
18436;BME280;9346;52.006;4.720;2023-12-14T07:51:24;101669.41;;;6.55;100.00
18436;BME280;9346;52.006;4.720;2023-12-14T07:53:53;101662.25;;;6.54;100.00
18436;BME280;9346;52.006;4.720;2023-12-14T07:56:21;101663.59;;;6.45;100.00
18436;BME280;9346;52.006;4.720;2023-12-14T07:58:50;101663.47;;;6.40;100.00
18436;BME280;9346;52.006;4.720;2023-12-14T08:01:18;101665.34;;;6.40;100.00
18436;BME280;9346;52.006;4.720;2023-12-14T08:03:46;101664.31;;;6.41;100.00
18436;BME280;9346;52.006;4.720;2023-12-14T08:06:14;101667.50;;;6.38;100.00
18436;BME280;9346;52.006;4.720;2023-12-14T08:08:43;101676.31;;;6.40;100.00
18436;BME280;9346;52.006;4.720;2023-12-14T08:11:11;101681.78;;;6.40;100.00
18436;BME280;9346;52.006;4.720;2023-12-14T08:13:38;101688.56;;;6.37;100.00
18436;BME280;9346;52.006;4.720;2023-12-14T08:16:07;101680.34;;;6.37;100.00
18436;BME280;9346;52.006;4.720;2023-12-14T08:18:36;101684.38;;;6.35;100.00
18436;BME280;9346;52.006;4.720;2023-12-14T08:21:04;101689.44;;;6.31;100.00
18436;BME280;9346;52.006;4.720;2023-12-14T08:23:31;101696.59;;;6.32;100.00
18436;BME280;9346;52.006;4.720;2023-12-14T08:26:02;101708.16;;;6.34;100.00
18436;BME280;9346;52.006;4.720;2023-12-14T08:28:29;101704.34;;;6.35;100.00
18436;BME280;9346;52.006;4.720;2023-12-14T08:30:57;101722.69;;;6.35;100.00
18436;BME280;9346;52.006;4.720;2023-12-14T08:33:28;101728.06;;;6.41;100.00
18436;BME280;9346;52.006;4.720;2023-12-14T08:35:55;101742.75;;;6.47;100.00
18436;BME280;9346;52.006;4.720;2023-12-14T08:38:23;101748.22;;;6.47;100.00
18436;BME280;9346;52.006;4.720;2023-12-14T08:40:50;101746.09;;;6.49;100.00
18436;BME280;9346;52.006;4.720;2023-12-14T08:43:21;101751.13;;;6.52;100.00
18436;BME280;9346;52.006;4.720;2023-12-14T08:45:49;101757.81;;;6.56;100.00
18436;BME280;9346;52.006;4.720;2023-12-14T08:48:16;101767.50;;;6.58;100.00
18436;BME280;9346;52.006;4.720;2023-12-14T08:50:44;101773.56;;;6.60;100.00
18436;BME280;9346;52.006;4.720;2023-12-14T08:53:12;101776.53;;;6.59;100.00
18436;BME280;9346;52.006;4.720;2023-12-14T08:55:40;101779.72;;;6.56;100.00
18436;BME280;9346;52.006;4.720;2023-12-14T08:58:07;101781.03;;;6.53;100.00
18436;BME280;9346;52.006;4.720;2023-12-14T09:00:37;101795.69;;;6.59;100.00
18436;BME280;9346;52.006;4.720;2023-12-14T09:03:04;101792.97;;;6.59;100.00
18436;BME280;9346;52.006;4.720;2023-12-14T09:05:32;101794.88;;;6.58;100.00
18436;BME280;9346;52.006;4.720;2023-12-14T09:08:00;101802.84;;;6.60;100.00
18436;BME280;9346;52.006;4.720;2023-12-14T09:10:28;101808.94;;;6.62;100.00
18436;BME280;9346;52.006;4.720;2023-12-14T09:12:57;101793.13;;;6.64;100.00
18436;BME280;9346;52.006;4.720;2023-12-14T09:15:25;101800.28;;;6.65;100.00
18436;BME280;9346;52.006;4.720;2023-12-14T09:17:57;101812.66;;;6.67;100.00
18436;BME280;9346;52.006;4.720;2023-12-14T09:20:26;101806.38;;;6.67;100.00
18436;BME280;9346;52.006;4.720;2023-12-14T09:22:54;101813.53;;;6.68;100.00
18436;BME280;9346;52.006;4.720;2023-12-14T09:25:23;101805.94;;;6.70;100.00
18436;BME280;9346;52.006;4.720;2023-12-14T09:27:50;101811.19;;;6.71;100.00
18436;BME280;9346;52.006;4.720;2023-12-14T09:30:18;101813.22;;;6.76;100.00
18436;BME280;9346;52.006;4.720;2023-12-14T09:32:47;101818.47;;;6.77;100.00
18436;BME280;9346;52.006;4.720;2023-12-14T09:35:17;101823.72;;;6.79;100.00
18436;BME280;9346;52.006;4.720;2023-12-14T09:37:45;101821.81;;;6.79;100.00
18436;BME280;9346;52.006;4.720;2023-12-14T09:40:13;101817.19;;;6.80;100.00
18436;BME280;9346;52.006;4.720;2023-12-14T09:42:42;101834.84;;;6.84;100.00
18436;BME280;9346;52.006;4.720;2023-12-14T09:45:11;101836.28;;;6.86;100.00
18436;BME280;9346;52.006;4.720;2023-12-14T09:47:38;101846.41;;;6.86;100.00
18436;BME280;9346;52.006;4.720;2023-12-14T09:50:07;101851.28;;;6.84;100.00
18436;BME280;9346;52.006;4.720;2023-12-14T09:52:37;101855.69;;;6.85;100.00
18436;BME280;9346;52.006;4.720;2023-12-14T09:55:05;101857.38;;;6.86;100.00
18436;BME280;9346;52.006;4.720;2023-12-14T09:57:33;101855.22;;;6.88;100.00
18436;BME280;9346;52.006;4.720;2023-12-14T10:00:01;101859.50;;;6.84;100.00
18436;BME280;9346;52.006;4.720;2023-12-14T10:02:30;101861.16;;;6.85;100.00
18436;BME280;9346;52.006;4.720;2023-12-14T10:04:58;101864.97;;;6.84;100.00
18436;BME280;9346;52.006;4.720;2023-12-14T10:07:25;101866.19;;;6.88;100.00
18436;BME280;9346;52.006;4.720;2023-12-14T10:10:09;101866.59;;;6.92;100.00
18436;BME280;9346;52.006;4.720;2023-12-14T10:12:50;101872.88;;;6.92;100.00
18436;BME280;9346;52.006;4.720;2023-12-14T10:15:18;101875.41;;;6.93;100.00
18436;BME280;9346;52.006;4.720;2023-12-14T10:17:51;101883.38;;;6.95;100.00
18436;BME280;9346;52.006;4.720;2023-12-14T10:20:19;101881.72;;;6.94;100.00
18436;BME280;9346;52.006;4.720;2023-12-14T10:22:49;101885.09;;;6.96;100.00
18436;BME280;9346;52.006;4.720;2023-12-14T10:25:20;101881.28;;;6.97;100.00
18436;BME280;9346;52.006;4.720;2023-12-14T10:27:48;101883.38;;;6.95;100.00
18436;BME280;9346;52.006;4.720;2023-12-14T10:30:16;101881.09;;;6.92;100.00
18436;BME280;9346;52.006;4.720;2023-12-14T10:32:45;101881.28;;;6.97;100.00
18436;BME280;9346;52.006;4.720;2023-12-14T10:35:14;101887.16;;;7.01;100.00
18436;BME280;9346;52.006;4.720;2023-12-14T10:37:46;101889.28;;;6.99;100.00
18436;BME280;9346;52.006;4.720;2023-12-14T10:40:17;101884.63;;;6.99;100.00
18436;BME280;9346;52.006;4.720;2023-12-14T10:42:49;101894.31;;;7.02;100.00
18436;BME280;9346;52.006;4.720;2023-12-14T10:45:18;101896.38;;;7.06;100.00
18436;BME280;9346;52.006;4.720;2023-12-14T10:47:47;101900.31;;;7.10;100.00
18436;BME280;9346;52.006;4.720;2023-12-14T10:50:15;101905.81;;;7.10;100.00
18436;BME280;9346;52.006;4.720;2023-12-14T10:52:44;101910.44;;;7.10;100.00
18436;BME280;9346;52.006;4.720;2023-12-14T10:55:17;101908.94;;;7.14;100.00
18436;BME280;9346;52.006;4.720;2023-12-14T10:57:48;101898.34;;;7.17;100.00
18436;BME280;9346;52.006;4.720;2023-12-14T11:00:17;101909.47;;;7.22;100.00
18436;BME280;9346;52.006;4.720;2023-12-14T11:02:46;101904.00;;;7.22;100.00
18436;BME280;9346;52.006;4.720;2023-12-14T11:05:15;101905.66;;;7.23;100.00
18436;BME280;9346;52.006;4.720;2023-12-14T11:07:49;101910.69;;;7.26;100.00
18436;BME280;9346;52.006;4.720;2023-12-14T11:10:22;101919.31;;;7.30;100.00
18436;BME280;9346;52.006;4.720;2023-12-14T11:12:55;101917.16;;;7.32;100.00
18436;BME280;9346;52.006;4.720;2023-12-14T11:15:25;101919.69;;;7.33;100.00
18436;BME280;9346;52.006;4.720;2023-12-14T11:18:27;101909.69;;;7.39;100.00
18436;BME280;9346;52.006;4.720;2023-12-14T11:20:58;101917.13;;;7.38;100.00
18436;BME280;9346;52.006;4.720;2023-12-14T11:23:33;101915.19;;;7.39;100.00
18436;BME280;9346;52.006;4.720;2023-12-14T11:26:05;101924.50;;;7.38;100.00
18436;BME280;9346;52.006;4.720;2023-12-14T11:28:37;101925.56;;;7.37;100.00
18436;BME280;9346;52.006;4.720;2023-12-14T11:31:09;101921.75;;;7.38;100.00
18436;BME280;9346;52.006;4.720;2023-12-14T11:33:38;101928.66;;;7.40;100.00
18436;BME280;9346;52.006;4.720;2023-12-14T11:36:06;101933.69;;;7.43;100.00
18436;BME280;9346;52.006;4.720;2023-12-14T11:38:34;101937.91;;;7.46;100.00
18436;BME280;9346;52.006;4.720;2023-12-14T11:41:03;101934.31;;;7.45;100.00
18436;BME280;9346;52.006;4.720;2023-12-14T11:43:41;101931.94;;;7.49;100.00
18436;BME280;9346;52.006;4.720;2023-12-14T11:46:10;101938.03;;;7.51;100.00
18436;BME280;9346;52.006;4.720;2023-12-14T11:48:39;101943.69;;;7.56;100.00
18436;BME280;9346;52.006;4.720;2023-12-14T11:51:06;101947.25;;;7.56;100.00
18436;BME280;9346;52.006;4.720;2023-12-14T11:53:36;101949.41;;;7.54;100.00
18436;BME280;9346;52.006;4.720;2023-12-14T11:56:05;101946.44;;;7.56;100.00
18436;BME280;9346;52.006;4.720;2023-12-14T11:58:33;101945.59;;;7.55;100.00
18436;BME280;9346;52.006;4.720;2023-12-14T12:01:13;101951.94;;;7.56;100.00
18436;BME280;9346;52.006;4.720;2023-12-14T12:03:41;101953.13;;;7.60;100.00
18436;BME280;9346;52.006;4.720;2023-12-14T12:06:19;101955.19;;;7.64;100.00
18436;BME280;9346;52.006;4.720;2023-12-14T12:08:47;101965.25;;;7.70;100.00
18436;BME280;9346;52.006;4.720;2023-12-14T12:11:16;101967.56;;;7.73;100.00
18436;BME280;9346;52.006;4.720;2023-12-14T12:13:50;101971.97;;;7.74;100.00
18436;BME280;9346;52.006;4.720;2023-12-14T12:16:20;101963.09;;;7.72;100.00
18436;BME280;9346;52.006;4.720;2023-12-14T12:18:48;101966.31;;;7.69;100.00
18436;BME280;9346;52.006;4.720;2023-12-14T12:21:16;101960.00;;;7.69;100.00
18436;BME280;9346;52.006;4.720;2023-12-14T12:23:44;101967.38;;;7.68;100.00
18436;BME280;9346;52.006;4.720;2023-12-14T12:26:12;101958.53;;;7.66;100.00
18436;BME280;9346;52.006;4.720;2023-12-14T12:28:40;101954.53;;;7.69;100.00
18436;BME280;9346;52.006;4.720;2023-12-14T12:31:07;101959.78;;;7.70;100.00
18436;BME280;9346;52.006;4.720;2023-12-14T12:33:39;101963.56;;;7.69;100.00
18436;BME280;9346;52.006;4.720;2023-12-14T12:36:07;101952.81;;;7.68;100.00
18436;BME280;9346;52.006;4.720;2023-12-14T12:38:34;101958.06;;;7.69;100.00
18436;BME280;9346;52.006;4.720;2023-12-14T12:41:05;101958.25;;;7.74;100.00
18436;BME280;9346;52.006;4.720;2023-12-14T12:43:33;101959.47;;;7.78;100.00
18436;BME280;9346;52.006;4.720;2023-12-14T12:46:01;101968.31;;;7.80;100.00
18436;BME280;9346;52.006;4.720;2023-12-14T12:48:29;101958.78;;;7.83;100.00
18436;BME280;9346;52.006;4.720;2023-12-14T12:50:59;101968.44;;;7.85;100.00
18436;BME280;9346;52.006;4.720;2023-12-14T12:53:27;101969.91;;;7.88;100.00
18436;BME280;9346;52.006;4.720;2023-12-14T12:55:55;101963.13;;;7.90;100.00
18436;BME280;9346;52.006;4.720;2023-12-14T12:58:23;101969.44;;;7.91;100.00
18436;BME280;9346;52.006;4.720;2023-12-14T13:00:51;101966.72;;;7.91;100.00
18436;BME280;9346;52.006;4.720;2023-12-14T13:03:21;101975.97;;;7.90;100.00
18436;BME280;9346;52.006;4.720;2023-12-14T13:05:49;101975.06;;;7.96;100.00
18436;BME280;9346;52.006;4.720;2023-12-14T13:08:20;101981.75;;;8.00;100.00